Time;durP1;ratioP1;P1;durP2;ratioP2;P2;SDS_P1;SDS_P2;PMS_P1;PMS_P2;Temp;Humidity;BMP_temperature;BMP_pressure;BME280_temperature;BME280_humidity;BME280_pressure;Samples;Min_cycle;Max_cycle;Signal;HPM_P1;HPM_P2
2023/01/25 00:00:04;;;;;;;;;;;4.70;99.90;5.20;100946.00;;;;342927;28;87929;-87
2023/01/25 00:00:16;;;;;;;;;;;4.60;99.90;5.10;100938.00;;;;340582;28;83379;-87
2023/01/25 00:00:28;;;;;;;;;;;4.60;99.90;5.10;100934.00;;;;341483;28;91517;-87
2023/01/25 00:00:40;;;;;;;;;;;4.60;99.90;5.20;100941.00;;;;341874;28;82613;-86
2023/01/25 00:00:54;;;;;;;;;;;4.60;99.90;5.20;100934.00;;;;338671;28;92434;-87
2023/01/25 00:01:06;;;;;;;;;;;4.60;99.90;5.20;100937.00;;;;341834;28;83541;-87
2023/01/25 00:01:18;;;;;;;;;;;4.70;99.90;5.20;100940.00;;;;341422;28;88650;-86
2023/01/25 00:01:30;;;;;;;;;;;4.70;99.90;5.20;100947.00;;;;340554;28;82324;-87
2023/01/25 00:01:42;;;;;;;;;;;4.70;99.90;5.10;100940.00;;;;344220;28;90999;-87
2023/01/25 00:01:53;;;;;;;;;;;4.70;99.90;5.20;100936.00;;;;343383;28;83199;-87
2023/01/25 00:02:05;;;;;;;;;;;4.60;99.90;5.10;100939.00;;;;341533;28;91327;-87
2023/01/25 00:02:17;;;;;;;;;;;4.70;99.90;5.20;100940.00;;;;341884;28;83354;-87
2023/01/25 00:02:29;;;;;;;;;;;4.60;99.90;5.20;100935.00;;;;340221;28;91770;-87
2023/01/25 00:02:41;;;;;;;;;;;4.60;99.90;5.20;100945.00;;;;340564;28;83428;-87
2023/01/25 00:02:53;;;;;;;;;;;4.60;99.90;5.20;100940.00;;;;340081;28;91099;-87
2023/01/25 00:03:04;;;;;;;;;;;4.60;99.90;5.20;100939.00;;;;343314;28;83458;-87
2023/01/25 00:03:16;;;;;;;;;;;4.60;99.90;5.10;100930.00;;;;342648;28;90452;-87
2023/01/25 00:03:28;;;;;;;;;;;4.60;99.90;5.10;100929.00;;;;341928;28;82340;-87
2023/01/25 00:03:40;;;;;;;;;;;4.70;99.90;5.20;100930.00;;;;340212;28;89242;-87
2023/01/25 00:03:52;;;;;;;;;;;4.60;99.90;5.20;100937.00;;;;341889;28;83429;-86
2023/01/25 00:04:04;;;;;;;;;;;4.60;99.90;5.10;100931.00;;;;341500;28;90270;-87
2023/01/25 00:04:16;;;;;;;;;;;4.60;99.90;5.00;100938.00;;;;343234;28;83328;-86
2023/01/25 00:04:27;;;;;;;;;;;4.60;99.90;5.10;100933.00;;;;341493;28;91547;-87
2023/01/25 00:04:39;;;;;;;;;;;4.60;99.90;5.00;100938.00;;;;340517;28;83424;-87
2023/01/25 00:04:51;;;;;;;;;;;4.60;99.90;5.00;100932.00;;;;341241;28;92319;-87
2023/01/25 00:05:03;;;;;;;;;;;4.60;99.90;5.00;100940.00;;;;341930;28;82683;-87
2023/01/25 00:05:15;;;;;;;;;;;4.60;99.90;5.10;100939.00;;;;340162;28;90820;-87
2023/01/25 00:05:27;;;;;;;;;;;4.60;99.90;5.00;100935.00;;;;343323;28;83407;-87
2023/01/25 00:05:38;;;;;;;;;;;4.60;99.90;5.00;100934.00;;;;342802;28;91565;-87
2023/01/25 00:05:57;;;;;;;;;;;4.60;99.90;5.00;100932.00;;;;341877;28;82586;-87
2023/01/25 00:06:09;;;;;;;;;;;4.60;99.90;5.00;100933.00;;;;341453;28;90398;-87
2023/01/25 00:06:21;;;;;;;;;;;4.50;99.90;5.00;100929.00;;;;345974;28;83523;-87
2023/01/25 00:06:32;;;;;;;;;;;4.50;99.90;4.90;100929.00;;;;342923;28;89156;-87
2023/01/25 00:06:45;;;;;;;;;;;4.50;99.90;5.00;100933.00;;;;341881;28;83343;-87
2023/01/25 00:06:56;;;;;;;;;;;4.50;99.90;5.00;100927.00;;;;341330;28;92846;-87
2023/01/25 00:07:08;;;;;;;;;;;4.50;99.90;5.10;100929.00;;;;343039;28;83323;-87
2023/01/25 00:07:20;;;;;;;;;;;4.50;99.90;5.00;100930.00;;;;342727;28;92063;-86
2023/01/25 00:07:32;;;;;;;;;;;4.50;99.90;5.10;100936.00;;;;341964;28;82723;-87
2023/01/25 00:07:43;;;;;;;;;;;4.50;99.90;5.00;100933.00;;;;341420;28;91466;-87
2023/01/25 00:07:55;;;;;;;;;;;4.50;99.90;4.90;100937.00;;;;343392;28;83331;-87
2023/01/25 00:08:07;;;;;;;;;;;4.50;99.90;5.00;100940.00;;;;341514;28;91324;-87
2023/01/25 00:08:20;;;;;;;;;;;4.50;99.90;5.00;100935.00;;;;341865;28;83531;-87
2023/01/25 00:08:31;;;;;;;;;;;4.50;99.90;5.00;100937.00;;;;344131;28;91072;-87
2023/01/25 00:08:43;;;;;;;;;;;4.50;99.90;5.00;100935.00;;;;342015;28;82466;-87
2023/01/25 00:08:55;;;;;;;;;;;4.50;99.90;5.10;100931.00;;;;342760;28;91309;-86
2023/01/25 00:09:09;;;;;;;;;;;4.50;99.90;5.10;100938.00;;;;344656;28;83401;-86
2023/01/25 00:09:21;;;;;;;;;;;4.50;99.90;5.10;100932.00;;;;339839;28;91429;-86
2023/01/25 00:09:32;;;;;;;;;;;4.50;99.90;5.10;100944.00;;;;340487;28;82611;-87
2023/01/25 00:09:44;;;;;;;;;;;4.50;99.90;5.10;100930.00;;;;340173;28;90253;-87
2023/01/25 00:09:56;;;;;;;;;;;4.50;99.90;5.00;100937.00;;;;343336;28;83364;-87
2023/01/25 00:10:08;;;;;;;;;;;4.50;99.90;5.00;100928.00;;;;340131;28;91457;-87
2023/01/25 00:10:20;;;;;;;;;;;4.50;99.90;5.00;100932.00;;;;342813;28;83447;-87
2023/01/25 00:10:32;;;;;;;;;;;4.50;99.90;5.00;100930.00;;;;344206;28;91658;-86
2023/01/25 00:10:43;;;;;;;;;;;4.50;99.90;5.10;100933.00;;;;341855;28;83390;-87
2023/01/25 00:10:55;;;;;;;;;;;4.50;99.90;5.00;100940.00;;;;341367;28;92422;-87
2023/01/25 00:11:09;;;;;;;;;;;4.50;99.90;5.10;100931.00;;;;343303;28;82594;-87
2023/01/25 00:11:21;;;;;;;;;;;4.50;99.90;5.10;100923.00;;;;341620;28;88853;-87
2023/01/25 00:11:32;;;;;;;;;;;4.50;99.90;5.10;100933.00;;;;340498;28;83330;-87
2023/01/25 00:11:44;;;;;;;;;;;4.50;99.90;5.10;100936.00;;;;341480;28;91673;-87
2023/01/25 00:11:57;;;;;;;;;;;4.50;99.90;5.10;100932.00;;;;343085;28;82478;-87
2023/01/25 00:12:08;;;;;;;;;;;4.50;99.90;5.10;100925.00;;;;341481;28;90452;-87
2023/01/25 00:12:20;;;;;;;;;;;4.50;99.90;5.10;100929.00;;;;341846;28;83485;-87
2023/01/25 00:12:32;;;;;;;;;;;4.60;99.90;5.10;100926.00;;;;341550;28;91608;-87
2023/01/25 00:12:44;;;;;;;;;;;4.60;99.90;5.20;100927.00;;;;339189;28;83360;-87
2023/01/25 00:12:56;;;;;;;;;;;4.60;99.90;5.20;100915.00;;;;342839;28;90136;-87
2023/01/25 00:13:07;;;;;;;;;;;4.60;99.90;5.20;100934.00;;;;342014;28;82418;-87
2023/01/25 00:13:19;;;;;;;;;;;4.60;99.90;5.20;100930.00;;;;340230;28;91243;-87
2023/01/25 00:13:31;;;;;;;;;;;4.50;99.90;5.10;100925.00;;;;344597;28;83368;-87
2023/01/25 00:13:43;;;;;;;;;;;4.60;99.90;5.10;100930.00;;;;341523;28;91260;-87
2023/01/25 00:13:55;;;;;;;;;;;4.60;99.90;5.00;100924.00;;;;340576;28;83409;-87
2023/01/25 00:14:08;;;;;;;;;;;4.50;99.90;5.00;100934.00;;;;341426;28;91373;-86
2023/01/25 00:14:19;;;;;;;;;;;4.50;99.90;5.00;100932.00;;;;343332;28;82355;-87
2023/01/25 00:14:31;;;;;;;;;;;4.60;99.90;5.00;100933.00;;;;341544;28;90343;-87
2023/01/25 00:14:44;;;;;;;;;;;4.60;99.90;5.10;100927.00;;;;340678;28;83453;-87
2023/01/25 00:14:56;;;;;;;;;;;4.60;99.90;5.00;100936.00;;;;341395;28;91431;-87
2023/01/25 00:15:08;;;;;;;;;;;4.60;99.90;5.00;100928.00;;;;341951;28;82494;-87
2023/01/25 00:15:20;;;;;;;;;;;4.60;99.90;5.10;100921.00;;;;341536;28;90596;-87
2023/01/25 00:15:32;;;;;;;;;;;4.50;99.90;5.10;100930.00;;;;341828;28;83247;-87
2023/01/25 00:15:43;;;;;;;;;;;4.50;99.90;5.00;100929.00;;;;341580;28;90437;-86
2023/01/25 00:16:02;;;;;;;;;;;4.50;99.90;4.90;100921.00;;;;344815;28;82507;-87
2023/01/25 00:16:14;;;;;;;;;;;4.50;99.90;4.90;100924.00;;;;343066;28;91550;-87
2023/01/25 00:16:26;;;;;;;;;;;4.50;99.90;5.00;100923.00;;;;343221;28;83487;-87
2023/01/25 00:16:38;;;;;;;;;;;4.50;99.90;5.00;100924.00;;;;340332;28;90196;-86
2023/01/25 00:16:50;;;;;;;;;;;4.50;99.90;5.00;100928.00;;;;343348;28;83477;-87
2023/01/25 00:17:02;;;;;;;;;;;4.50;99.90;5.00;100918.00;;;;343578;28;91640;-87
2023/01/25 00:17:13;;;;;;;;;;;4.50;99.90;5.00;100927.00;;;;342581;28;82465;-86
2023/01/25 00:17:25;;;;;;;;;;;4.50;99.90;5.00;100924.00;;;;340788;28;92622;-87
2023/01/25 00:17:37;;;;;;;;;;;4.50;99.90;4.90;100926.00;;;;340018;28;82568;-86
2023/01/25 00:17:49;;;;;;;;;;;4.50;99.90;5.00;100926.00;;;;341677;28;90132;-87
2023/01/25 00:18:00;;;;;;;;;;;4.50;99.90;5.10;100929.00;;;;340723;28;83431;-87
2023/01/25 00:18:12;;;;;;;;;;;4.50;99.90;5.10;100918.00;;;;340359;28;92185;-87
2023/01/25 00:18:24;;;;;;;;;;;4.50;99.90;5.10;100922.00;;;;342126;28;83363;-87
2023/01/25 00:18:36;;;;;;;;;;;4.50;99.90;5.10;100918.00;;;;340292;28;91202;-86
2023/01/25 00:18:47;;;;;;;;;;;4.50;99.90;5.10;100929.00;;;;340778;28;83476;-87
2023/01/25 00:18:59;;;;;;;;;;;4.50;99.90;5.20;100924.00;;;;340116;28;91790;-87
2023/01/25 00:19:11;;;;;;;;;;;4.50;99.90;5.20;100929.00;;;;342263;28;82398;-87
2023/01/25 00:19:23;;;;;;;;;;;4.50;99.90;5.10;100924.00;;;;341612;28;89333;-87
2023/01/25 00:19:35;;;;;;;;;;;4.50;99.90;5.10;100918.00;;;;343502;28;83521;-87
2023/01/25 00:19:46;;;;;;;;;;;4.50;99.90;5.10;100924.00;;;;341924;28;91609;-87
2023/01/25 00:19:58;;;;;;;;;;;4.50;99.90;5.10;100922.00;;;;343374;28;83310;-88
2023/01/25 00:20:10;;;;;;;;;;;4.50;99.90;5.10;100920.00;;;;340412;28;90640;-87
2023/01/25 00:20:21;;;;;;;;;;;4.50;99.90;5.10;100925.00;;;;342059;28;82456;-87
2023/01/25 00:20:33;;;;;;;;;;;4.50;99.90;5.00;100931.00;;;;341633;28;92121;-87
2023/01/25 00:20:45;;;;;;;;;;;4.50;99.90;5.00;100926.00;;;;340466;28;83430;-87
2023/01/25 00:20:57;;;;;;;;;;;4.50;99.90;5.10;100924.00;;;;339853;28;92853;-87
2023/01/25 00:21:16;;;;;;;;;;;4.50;99.90;5.10;100932.00;;;;340474;28;83459;-87
2023/01/25 00:21:27;;;;;;;;;;;4.50;99.90;5.10;100924.00;;;;341473;28;91370;-87
2023/01/25 00:21:39;;;;;;;;;;;4.50;99.90;5.10;100919.00;;;;341877;28;82507;-87
2023/01/25 00:21:51;;;;;;;;;;;4.50;99.90;5.10;100930.00;;;;342907;28;90392;-87
2023/01/25 00:22:03;;;;;;;;;;;4.50;99.90;5.20;100925.00;;;;343053;28;83665;-87
2023/01/25 00:22:14;;;;;;;;;;;4.60;99.90;5.10;100920.00;;;;341479;28;91672;-87
2023/01/25 00:22:26;;;;;;;;;;;4.60;99.90;5.20;100921.00;;;;340543;28;83235;-87
2023/01/25 00:22:38;;;;;;;;;;;4.60;99.90;5.20;100924.00;;;;342755;28;91454;-87
2023/01/25 00:22:50;;;;;;;;;;;4.60;99.90;5.20;100930.00;;;;340499;28;82563;-87
2023/01/25 00:23:01;;;;;;;;;;;4.60;99.90;5.20;100924.00;;;;341448;28;91175;-87
2023/01/25 00:23:13;;;;;;;;;;;4.50;99.90;5.20;100922.00;;;;342014;28;83672;-87
2023/01/25 00:23:25;;;;;;;;;;;4.60;99.90;5.20;100917.00;;;;342678;28;91294;-86
2023/01/25 00:23:37;;;;;;;;;;;4.60;99.90;5.20;100928.00;;;;341760;28;83256;-87
2023/01/25 00:23:48;;;;;;;;;;;4.60;99.90;5.20;100922.00;;;;341550;28;91505;-87
2023/01/25 00:24:00;;;;;;;;;;;4.60;99.90;5.20;100923.00;;;;343253;28;83383;-87
2023/01/25 00:24:13;;;;;;;;;;;4.60;99.90;5.30;100917.00;;;;341509;28;91727;-87
2023/01/25 00:24:25;;;;;;;;;;;4.50;99.90;5.30;100929.00;;;;343284;28;83243;-87
2023/01/25 00:24:37;;;;;;;;;;;4.60;99.90;5.20;100923.00;;;;340201;28;90217;-87
2023/01/25 00:24:48;;;;;;;;;;;4.60;99.90;5.20;100916.00;;;;339140;28;82518;-87
2023/01/25 00:25:00;;;;;;;;;;;4.60;99.90;5.20;100926.00;;;;341352;28;93060;-86
2023/01/25 00:25:12;;;;;;;;;;;4.60;99.90;5.20;100925.00;;;;341976;28;83384;-87
2023/01/25 00:25:24;;;;;;;;;;;4.60;99.90;5.20;100924.00;;;;342783;28;91649;-87
2023/01/25 00:25:35;;;;;;;;;;;4.60;99.90;5.20;100915.00;;;;340518;28;83488;-87
2023/01/25 00:25:47;;;;;;;;;;;4.60;99.90;5.10;100924.00;;;;340149;28;91237;-87
2023/01/25 00:25:59;;;;;;;;;;;4.60;99.90;5.10;100926.00;;;;341915;28;82411;-87
2023/01/25 00:26:11;;;;;;;;;;;4.60;99.90;5.10;100913.00;;;;341439;28;91202;-87
2023/01/25 00:26:22;;;;;;;;;;;4.60;99.90;5.10;100925.00;;;;341923;28;83361;-87
2023/01/25 00:26:34;;;;;;;;;;;4.60;99.90;5.10;100919.00;;;;341616;28;90400;-87
2023/01/25 00:26:46;;;;;;;;;;;4.60;99.90;5.10;100932.00;;;;343264;28;83454;-87
2023/01/25 00:26:58;;;;;;;;;;;4.60;99.90;5.10;100919.00;;;;341376;28;92507;-87
2023/01/25 00:27:10;;;;;;;;;;;4.60;99.90;5.20;100919.00;;;;342020;28;83256;-87
2023/01/25 00:27:21;;;;;;;;;;;4.60;99.90;5.20;100922.00;;;;338591;28;88973;-87
2023/01/25 00:27:33;;;;;;;;;;;4.60;99.90;5.20;100915.00;;;;343206;28;83325;-87
2023/01/25 00:27:45;;;;;;;;;;;4.60;99.90;5.20;100925.00;;;;341370;28;91425;-87
2023/01/25 00:27:57;;;;;;;;;;;4.60;99.90;5.20;100920.00;;;;341973;28;82435;-87
2023/01/25 00:28:08;;;;;;;;;;;4.60;99.90;5.10;100928.00;;;;342882;28;87932;-87
2023/01/25 00:28:20;;;;;;;;;;;4.60;99.90;5.20;100923.00;;;;341828;28;83451;-86
2023/01/25 00:28:32;;;;;;;;;;;4.60;99.90;5.20;100919.00;;;;342642;28;90955;-87
2023/01/25 00:28:53;;;;;;;;;;;4.60;99.90;5.20;100928.00;;;;344566;28;82468;-86
2023/01/25 00:29:05;;;;;;;;;;;4.60;99.90;5.20;100929.00;;;;341427;28;93354;-87
2023/01/25 00:29:17;;;;;;;;;;;4.60;99.90;5.20;100924.00;;;;344670;28;83363;-87
2023/01/25 00:29:29;;;;;;;;;;;4.60;99.90;5.20;100932.00;;;;341410;28;91567;-87
2023/01/25 00:29:40;;;;;;;;;;;4.60;99.90;5.20;100924.00;;;;340583;28;83334;-87
2023/01/25 00:29:52;;;;;;;;;;;4.60;99.90;5.20;100923.00;;;;342638;28;90328;-87
2023/01/25 00:30:04;;;;;;;;;;;4.60;99.90;5.20;100915.00;;;;343371;28;83225;-87
2023/01/25 00:30:16;;;;;;;;;;;4.60;99.90;5.20;100926.00;;;;341499;28;91284;-87
2023/01/25 00:30:28;;;;;;;;;;;4.60;99.90;5.20;100925.00;;;;341826;28;83531;-87
2023/01/25 00:30:40;;;;;;;;;;;4.60;99.90;5.30;100923.00;;;;342931;28;91478;-87
2023/01/25 00:30:52;;;;;;;;;;;4.60;99.90;5.20;100919.00;;;;341818;28;83307;-87
2023/01/25 00:31:04;;;;;;;;;;;4.60;99.90;5.10;100925.00;;;;342683;28;91184;-87
2023/01/25 00:31:24;;;;;;;;;;;4.70;99.90;5.20;100923.00;;;;341927;28;83394;-87
2023/01/25 00:32:00;;;;;;;;;;;4.60;99.90;5.20;100926.00;;;;341394;28;91283;-87
2023/01/25 00:32:12;;;;;;;;;;;4.60;99.90;5.20;100928.00;;;;336383;28;83356;-86
2023/01/25 00:32:28;;;;;;;;;;;4.70;99.90;5.10;100930.00;;;;336037;28;92311;-87
2023/01/25 00:32:48;;;;;;;;;;;4.70;99.90;5.10;100928.00;;;;335105;29;83636;-87
2023/01/25 00:33:31;;;;;;;;;;;4.60;99.90;5.30;100923.00;;;;337303;28;91524;-87
2023/01/25 00:33:55;;;;;;;;;;;4.70;99.90;5.20;100926.00;;;;337741;28;83462;-87
2023/01/25 00:34:48;;;;;;;;;;;4.60;99.90;5.30;100926.00;;;;335986;28;90371;-87
2023/01/25 00:34:59;;;;;;;;;;;4.60;99.90;5.10;100922.00;;;;335181;29;83274;-87
2023/01/25 00:35:12;;;;;;;;;;;4.70;99.90;5.20;100920.00;;;;337489;28;89924;-87
2023/01/25 00:35:23;;;;;;;;;;;4.60;99.90;5.10;100921.00;;;;336394;28;83305;-87
2023/01/25 00:35:35;;;;;;;;;;;4.70;99.90;5.20;100926.00;;;;334883;29;90388;-87
2023/01/25 00:35:47;;;;;;;;;;;4.70;99.90;5.10;100923.00;;;;339265;28;82478;-87
2023/01/25 00:35:59;;;;;;;;;;;4.70;99.90;5.10;100915.00;;;;338766;28;91389;-86
2023/01/25 00:36:36;;;;;;;;;;;4.70;99.90;5.10;100919.00;;;;337432;28;83547;-86
2023/01/25 00:36:49;;;;;;;;;;;4.70;99.90;5.10;100925.00;;;;337433;28;91544;-87
2023/01/25 00:37:09;;;;;;;;;;;4.60;99.90;5.00;100918.00;;;;337866;28;83500;-87
2023/01/25 00:37:24;;;;;;;;;;;4.60;99.90;5.10;100923.00;;;;337499;28;91994;-86
2023/01/25 00:37:37;;;;;;;;;;;4.60;99.90;5.10;100922.00;;;;337807;28;83472;-86
2023/01/25 00:37:51;;;;;;;;;;;4.60;99.90;5.10;100920.00;;;;336054;28;90278;-86
2023/01/25 00:38:05;;;;;;;;;;;4.60;99.90;5.10;100924.00;;;;335209;29;83487;-86
2023/01/25 00:38:30;;;;;;;;;;;4.60;99.90;5.10;100918.00;;;;337318;28;91561;-87
2023/01/25 00:38:41;;;;;;;;;;;4.60;99.90;5.00;100921.00;;;;335333;29;83465;-87
2023/01/25 00:38:53;;;;;;;;;;;4.60;99.90;5.10;100918.00;;;;336091;28;90628;-87
2023/01/25 00:39:05;;;;;;;;;;;4.50;99.90;5.10;100914.00;;;;337879;28;83487;-86
2023/01/25 00:39:17;;;;;;;;;;;4.60;99.90;5.10;100917.00;;;;334816;29;91455;-87
2023/01/25 00:39:29;;;;;;;;;;;4.60;99.90;5.10;100907.00;;;;335191;29;83608;-87
2023/01/25 00:39:41;;;;;;;;;;;4.60;99.90;5.10;100923.00;;;;335815;28;91660;-87
2023/01/25 00:39:53;;;;;;;;;;;4.60;99.90;5.10;100921.00;;;;335278;29;83463;-86
2023/01/25 00:40:05;;;;;;;;;;;4.60;99.90;5.10;100915.00;;;;334846;29;91365;-87
2023/01/25 00:40:17;;;;;;;;;;;4.50;99.90;5.00;100916.00;;;;337714;28;83654;-87
2023/01/25 00:40:29;;;;;;;;;;;4.60;99.90;5.10;100923.00;;;;335998;28;91463;-86
2023/01/25 00:40:40;;;;;;;;;;;4.60;99.90;5.10;100920.00;;;;337729;28;83536;-87
2023/01/25 00:40:52;;;;;;;;;;;4.60;99.90;5.10;100907.00;;;;337280;28;91381;-87
2023/01/25 00:41:04;;;;;;;;;;;4.50;99.90;5.00;100920.00;;;;336516;28;83422;-87
2023/01/25 00:41:16;;;;;;;;;;;4.50;99.90;5.10;100920.00;;;;336127;28;91694;-87
2023/01/25 00:41:27;;;;;;;;;;;4.60;99.90;5.10;100920.00;;;;339198;28;82577;-87
2023/01/25 00:41:39;;;;;;;;;;;4.60;99.90;5.10;100916.00;;;;337441;28;92048;-87
2023/01/25 00:41:51;;;;;;;;;;;4.50;99.90;5.10;100923.00;;;;337785;28;82364;-87
2023/01/25 00:42:03;;;;;;;;;;;4.60;99.90;5.10;100921.00;;;;337157;28;91882;-87
2023/01/25 00:42:15;;;;;;;;;;;4.50;99.90;5.00;100923.00;;;;337869;28;82577;-87
2023/01/25 00:42:27;;;;;;;;;;;4.50;99.90;5.00;100924.00;;;;337166;28;90640;-87
2023/01/25 00:42:39;;;;;;;;;;;4.50;99.90;5.00;100926.00;;;;337978;28;83374;-86
2023/01/25 00:42:51;;;;;;;;;;;4.50;99.90;5.10;100918.00;;;;337327;28;91453;-87
2023/01/25 00:43:02;;;;;;;;;;;4.50;99.90;5.00;100919.00;;;;337893;28;82538;-87
2023/01/25 00:43:14;;;;;;;;;;;4.50;99.90;5.00;100920.00;;;;337430;28;90800;-87
2023/01/25 00:43:26;;;;;;;;;;;4.50;99.90;5.10;100919.00;;;;336630;28;83270;-87
2023/01/25 00:43:38;;;;;;;;;;;4.50;99.90;5.10;100918.00;;;;338661;28;91294;-87
2023/01/25 00:43:49;;;;;;;;;;;4.50;99.90;5.10;100917.00;;;;337934;28;82411;-87
2023/01/25 00:44:01;;;;;;;;;;;4.50;99.90;5.10;100922.00;;;;337182;28;92095;-87
2023/01/25 00:44:13;;;;;;;;;;;4.50;99.90;5.10;100914.00;;;;340522;28;83503;-87
2023/01/25 00:44:24;;;;;;;;;;;4.50;99.90;5.10;100922.00;;;;337264;28;91682;-87
2023/01/25 00:44:37;;;;;;;;;;;4.50;99.90;5.10;100921.00;;;;339210;28;82552;-87
2023/01/25 00:44:49;;;;;;;;;;;4.50;99.90;5.10;100922.00;;;;337401;28;91370;-87
2023/01/25 00:45:01;;;;;;;;;;;4.50;99.90;5.10;100923.00;;;;337852;28;82628;-87
2023/01/25 00:45:12;;;;;;;;;;;4.50;99.90;5.10;100916.00;;;;337442;28;90578;-87
2023/01/25 00:45:24;;;;;;;;;;;4.50;99.90;5.00;100925.00;;;;336547;28;83474;-86
2023/01/25 00:45:36;;;;;;;;;;;4.50;99.90;5.10;100917.00;;;;338681;28;90749;-85
2023/01/25 00:45:48;;;;;;;;;;;4.50;99.90;5.10;100917.00;;;;336332;28;82421;-87
2023/01/25 00:46:00;;;;;;;;;;;4.50;99.90;5.10;100928.00;;;;337195;28;91555;-87
2023/01/25 00:46:15;;;;;;;;;;;4.50;99.90;5.10;100917.00;;;;339233;28;82524;-87
2023/01/25 00:46:27;;;;;;;;;;;4.60;99.90;5.10;100922.00;;;;337358;28;91139;-87
2023/01/25 00:46:38;;;;;;;;;;;4.60;99.90;5.10;100913.00;;;;337843;28;83393;-87
2023/01/25 00:46:50;;;;;;;;;;;4.60;99.90;5.00;100920.00;;;;337275;28;90123;-87
2023/01/25 00:47:03;;;;;;;;;;;4.60;99.90;5.00;100923.00;;;;340361;28;82581;-86
2023/01/25 00:47:15;;;;;;;;;;;4.50;99.90;5.00;100925.00;;;;335963;28;89778;-87
2023/01/25 00:47:27;;;;;;;;;;;4.60;99.90;5.00;100921.00;;;;336414;28;83247;-87
2023/01/25 00:47:39;;;;;;;;;;;4.60;99.90;5.00;100913.00;;;;337399;28;91328;-87
2023/01/25 00:47:54;;;;;;;;;;;4.50;99.90;5.00;100913.00;;;;340571;28;83369;-87
2023/01/25 00:48:05;;;;;;;;;;;4.60;99.90;5.10;100916.00;;;;336099;28;92590;-86
2023/01/25 00:48:17;;;;;;;;;;;4.50;99.90;5.00;100913.00;;;;337860;28;83513;-86
2023/01/25 00:48:29;;;;;;;;;;;4.60;99.90;5.00;100916.00;;;;338510;28;88063;-86
2023/01/25 00:48:41;;;;;;;;;;;4.50;99.90;5.10;100922.00;;;;339115;28;83462;-86
2023/01/25 00:48:53;;;;;;;;;;;4.50;99.90;5.10;100916.00;;;;336106;28;91690;-87
2023/01/25 00:49:05;;;;;;;;;;;4.50;99.90;5.00;100920.00;;;;338988;28;83537;-87
2023/01/25 00:49:25;;;;;;;;;;;4.60;99.90;5.00;100920.00;;;;335984;28;89506;-87
2023/01/25 00:49:38;;;;;;;;;;;4.50;99.90;5.10;100921.00;;;;337688;28;83468;-87
2023/01/25 00:49:49;;;;;;;;;;;4.60;99.90;5.10;100910.00;;;;338714;28;91659;-87
2023/01/25 00:50:01;;;;;;;;;;;4.60;99.90;5.00;100910.00;;;;339164;28;83343;-87
2023/01/25 00:50:13;;;;;;;;;;;4.50;99.90;5.00;100911.00;;;;334688;29;92182;-86
2023/01/25 00:50:25;;;;;;;;;;;4.50;99.90;5.10;100907.00;;;;335225;29;82353;-87
2023/01/25 00:50:37;;;;;;;;;;;4.50;99.90;5.10;100911.00;;;;337506;28;91753;-87
2023/01/25 00:50:48;;;;;;;;;;;4.50;99.90;5.10;100915.00;;;;337516;28;83199;-87
2023/01/25 00:51:01;;;;;;;;;;;4.50;99.90;5.10;100912.00;;;;336074;28;88729;-86
2023/01/25 00:51:12;;;;;;;;;;;4.50;99.90;5.10;100907.00;;;;339328;28;83370;-87
2023/01/25 00:51:24;;;;;;;;;;;4.50;99.90;5.10;100908.00;;;;338510;28;92163;-87
2023/01/25 00:51:36;;;;;;;;;;;4.50;99.90;5.00;100909.00;;;;336529;28;83420;-86
2023/01/25 00:51:48;;;;;;;;;;;4.50;99.90;5.10;100906.00;;;;336049;28;89658;-86
2023/01/25 00:52:00;;;;;;;;;;;4.50;99.90;5.10;100909.00;;;;337871;28;83443;-86
2023/01/25 00:52:12;;;;;;;;;;;4.50;99.90;5.10;100900.00;;;;337445;28;91435;-87
2023/01/25 00:52:24;;;;;;;;;;;4.50;99.90;5.00;100893.00;;;;336559;28;82374;-87
2023/01/25 00:52:36;;;;;;;;;;;4.50;99.90;5.10;100899.00;;;;337416;28;91612;-86
2023/01/25 00:52:47;;;;;;;;;;;4.50;99.90;5.10;100900.00;;;;337836;28;82493;-87
2023/01/25 00:52:59;;;;;;;;;;;4.50;99.90;5.10;100915.00;;;;334804;29;91065;-87
2023/01/25 00:53:11;;;;;;;;;;;4.50;99.90;5.10;100913.00;;;;334049;29;82491;-87
2023/01/25 00:53:22;;;;;;;;;;;4.50;99.90;5.10;100905.00;;;;338435;28;90389;-87
2023/01/25 00:53:34;;;;;;;;;;;4.50;99.90;5.10;100912.00;;;;337765;28;83644;-87
2023/01/25 00:53:46;;;;;;;;;;;4.50;99.90;5.10;100907.00;;;;336101;28;91278;-87
2023/01/25 00:53:57;;;;;;;;;;;4.50;99.90;5.00;100909.00;;;;337934;28;82331;-87
2023/01/25 00:54:09;;;;;;;;;;;4.50;99.90;4.90;100911.00;;;;338702;28;92351;-87
2023/01/25 00:54:21;;;;;;;;;;;4.50;99.90;4.80;100905.00;;;;336319;28;83515;-86
2023/01/25 00:54:33;;;;;;;;;;;4.50;99.90;4.90;100906.00;;;;338650;28;91924;-86
2023/01/25 00:54:45;;;;;;;;;;;4.50;99.90;4.90;100901.00;;;;337866;28;82525;-87
2023/01/25 00:54:57;;;;;;;;;;;4.50;99.90;4.80;100905.00;;;;334833;29;89325;-87
2023/01/25 00:55:09;;;;;;;;;;;4.40;99.90;4.90;100910.00;;;;335243;29;83460;-87
2023/01/25 00:55:21;;;;;;;;;;;4.40;99.90;4.90;100900.00;;;;338775;28;89223;-87
2023/01/25 00:55:33;;;;;;;;;;;4.40;99.90;4.90;100903.00;;;;335263;29;83220;-86
2023/01/25 00:55:52;;;;;;;;;;;4.40;99.90;5.00;100902.00;;;;336005;28;90812;-86
2023/01/25 00:56:04;;;;;;;;;;;4.40;99.90;5.00;100899.00;;;;337592;28;83463;-87
2023/01/25 00:56:16;;;;;;;;;;;4.40;99.90;5.00;100904.00;;;;336080;28;90586;-87
2023/01/25 00:56:28;;;;;;;;;;;4.40;99.90;5.00;100906.00;;;;337839;28;83386;-86
2023/01/25 00:56:40;;;;;;;;;;;4.40;99.90;5.00;100912.00;;;;337510;28;90383;-87
2023/01/25 00:56:52;;;;;;;;;;;4.40;99.90;5.10;100908.00;;;;336377;28;83366;-87
2023/01/25 00:57:04;;;;;;;;;;;4.40;99.90;5.10;100912.00;;;;337315;28;91941;-86
2023/01/25 00:57:16;;;;;;;;;;;4.40;99.90;5.10;100905.00;;;;339153;28;83397;-87
2023/01/25 00:57:28;;;;;;;;;;;4.50;99.90;5.10;100909.00;;;;336188;28;91374;-87
2023/01/25 00:57:39;;;;;;;;;;;4.40;99.90;5.10;100899.00;;;;336509;28;83460;-87
2023/01/25 00:57:51;;;;;;;;;;;4.50;99.90;5.10;100903.00;;;;337490;28;90993;-86
2023/01/25 00:58:03;;;;;;;;;;;4.50;99.90;5.10;100902.00;;;;337889;28;82646;-87
2023/01/25 00:58:15;;;;;;;;;;;4.40;99.90;5.10;100910.00;;;;337425;28;90132;-87
2023/01/25 00:58:26;;;;;;;;;;;4.50;99.90;5.10;100915.00;;;;339033;28;83194;-87
2023/01/25 00:58:39;;;;;;;;;;;4.40;99.90;5.00;100903.00;;;;336132;28;90487;-87
2023/01/25 00:58:51;;;;;;;;;;;4.40;99.90;5.10;100902.00;;;;339121;28;83602;-87
2023/01/25 00:59:03;;;;;;;;;;;4.40;99.90;5.00;100909.00;;;;337369;28;90293;-87
2023/01/25 00:59:14;;;;;;;;;;;4.40;99.90;5.00;100900.00;;;;338049;28;82276;-87
2023/01/25 00:59:26;;;;;;;;;;;4.50;99.90;5.10;100897.00;;;;334795;29;90224;-87
2023/01/25 00:59:43;;;;;;;;;;;4.50;99.90;5.10;100903.00;;;;337870;28;83519;-87
2023/01/25 00:59:54;;;;;;;;;;;4.50;99.90;5.10;100903.00;;;;338770;28;90510;-87
2023/01/25 01:00:07;;;;;;;;;;;4.40;99.90;5.10;100906.00;;;;339274;28;83418;-87
2023/01/25 01:00:19;;;;;;;;;;;4.50;99.90;5.10;100907.00;;;;337147;28;90458;-86
2023/01/25 01:00:30;;;;;;;;;;;4.40;99.90;5.00;100913.00;;;;336229;28;83510;-87
2023/01/25 01:00:42;;;;;;;;;;;4.50;99.90;5.10;100899.00;;;;335989;28;91964;-86
2023/01/25 01:00:54;;;;;;;;;;;4.50;99.90;5.00;100899.00;;;;336493;28;82572;-87
2023/01/25 01:01:06;;;;;;;;;;;4.50;99.90;4.90;100912.00;;;;338601;28;91796;-87
2023/01/25 01:01:18;;;;;;;;;;;4.50;99.90;4.90;100897.00;;;;336505;28;83333;-86
2023/01/25 01:01:30;;;;;;;;;;;4.50;99.90;4.90;100900.00;;;;337175;28;90391;-87
2023/01/25 01:01:42;;;;;;;;;;;4.40;99.90;5.00;100910.00;;;;339267;28;83277;-87
2023/01/25 01:01:53;;;;;;;;;;;4.40;99.90;5.00;100908.00;;;;337305;28;91230;-87
2023/01/25 01:02:05;;;;;;;;;;;4.40;99.90;5.10;100915.00;;;;337826;28;83422;-87
2023/01/25 01:02:17;;;;;;;;;;;4.40;99.90;5.10;100902.00;;;;337269;28;92826;-87
2023/01/25 01:02:29;;;;;;;;;;;4.50;99.90;5.00;100904.00;;;;337788;28;83511;-87
2023/01/25 01:02:41;;;;;;;;;;;4.40;99.90;5.00;100897.00;;;;337536;28;91520;-87
2023/01/25 01:02:52;;;;;;;;;;;4.50;99.90;5.00;100905.00;;;;339020;28;83507;-87
2023/01/25 01:03:04;;;;;;;;;;;4.40;99.90;5.00;100904.00;;;;338587;28;91685;-87
2023/01/25 01:03:16;;;;;;;;;;;4.40;99.90;4.90;100907.00;;;;337851;28;82478;-87
2023/01/25 01:03:28;;;;;;;;;;;4.40;99.90;4.90;100903.00;;;;338657;28;91610;-87